sensor_id;sensor_type;location;lat;lon;timestamp;pressure;altitude;pressure_sealevel;temperature;humidity
35489;BME280;21602;55.670;37.578;2023-03-12T00:00:09;96878.97;;;2.28;100.00
35489;BME280;21602;55.670;37.578;2023-03-12T00:02:37;96878.41;;;2.26;100.00
35489;BME280;21602;55.670;37.578;2023-03-12T00:05:03;96874.50;;;2.28;100.00
35489;BME280;21602;55.670;37.578;2023-03-12T00:07:29;96863.72;;;2.30;100.00
35489;BME280;21602;55.670;37.578;2023-03-12T00:09:55;96857.16;;;2.33;100.00
35489;BME280;21602;55.670;37.578;2023-03-12T00:12:21;96848.53;;;2.37;100.00
35489;BME280;21602;55.670;37.578;2023-03-12T00:14:46;96856.22;;;2.39;100.00
35489;BME280;21602;55.670;37.578;2023-03-12T00:17:12;96841.81;;;2.46;100.00
35489;BME280;21602;55.670;37.578;2023-03-12T00:19:38;96851.41;;;2.52;100.00
35489;BME280;21602;55.670;37.578;2023-03-12T00:22:04;96831.75;;;2.60;100.00
35489;BME280;21602;55.670;37.578;2023-03-12T00:24:29;96829.97;;;2.66;100.00
35489;BME280;21602;55.670;37.578;2023-03-12T00:26:55;96821.84;;;2.67;100.00
35489;BME280;21602;55.670;37.578;2023-03-12T00:29:21;96824.06;;;2.75;100.00
35489;BME280;21602;55.670;37.578;2023-03-12T00:31:47;96815.63;;;2.78;100.00
35489;BME280;21602;55.670;37.578;2023-03-12T00:34:12;96810.94;;;2.80;100.00
35489;BME280;21602;55.670;37.578;2023-03-12T00:36:38;96805.16;;;2.83;100.00
35489;BME280;21602;55.670;37.578;2023-03-12T00:39:05;96804.38;;;2.83;100.00
35489;BME280;21602;55.670;37.578;2023-03-12T00:41:33;96798.03;;;2.84;100.00
35489;BME280;21602;55.670;37.578;2023-03-12T00:43:59;96790.94;;;2.85;100.00
35489;BME280;21602;55.670;37.578;2023-03-12T00:46:25;96780.22;;;2.91;100.00
35489;BME280;21602;55.670;37.578;2023-03-12T00:48:50;96777.63;;;2.96;100.00
35489;BME280;21602;55.670;37.578;2023-03-12T00:51:16;96772.13;;;2.98;100.00
35489;BME280;21602;55.670;37.578;2023-03-12T00:53:43;96765.00;;;2.98;100.00
35489;BME280;21602;55.670;37.578;2023-03-12T00:56:08;96762.94;;;3.00;100.00
35489;BME280;21602;55.670;37.578;2023-03-12T00:58:35;96753.72;;;3.03;100.00
35489;BME280;21602;55.670;37.578;2023-03-12T01:01:01;96740.31;;;3.04;100.00
35489;BME280;21602;55.670;37.578;2023-03-12T01:03:26;96738.75;;;3.08;100.00
35489;BME280;21602;55.670;37.578;2023-03-12T01:05:52;96728.28;;;3.14;100.00
35489;BME280;21602;55.670;37.578;2023-03-12T01:08:22;96730.16;;;3.18;100.00
35489;BME280;21602;55.670;37.578;2023-03-12T01:10:48;96728.06;;;3.20;100.00
35489;BME280;21602;55.670;37.578;2023-03-12T01:13:13;96718.34;;;3.26;100.00
35489;BME280;21602;55.670;37.578;2023-03-12T01:15:39;96729.97;;;3.30;100.00
35489;BME280;21602;55.670;37.578;2023-03-12T01:18:05;96713.38;;;3.29;100.00
35489;BME280;21602;55.670;37.578;2023-03-12T01:20:31;96708.88;;;3.30;100.00
35489;BME280;21602;55.670;37.578;2023-03-12T01:22:57;96706.28;;;3.35;100.00
35489;BME280;21602;55.670;37.578;2023-03-12T01:25:22;96691.25;;;3.36;100.00
35489;BME280;21602;55.670;37.578;2023-03-12T01:27:48;96695.22;;;3.33;100.00
35489;BME280;21602;55.670;37.578;2023-03-12T01:30:14;96686.50;;;3.32;100.00
35489;BME280;21602;55.670;37.578;2023-03-12T01:32:40;96686.78;;;3.36;100.00
35489;BME280;21602;55.670;37.578;2023-03-12T01:35:06;96687.06;;;3.40;100.00
35489;BME280;21602;55.670;37.578;2023-03-12T01:37:32;96682.59;;;3.40;100.00
35489;BME280;21602;55.670;37.578;2023-03-12T01:39:58;96680.53;;;3.42;100.00
35489;BME280;21602;55.670;37.578;2023-03-12T01:42:24;96682.91;;;3.44;100.00
35489;BME280;21602;55.670;37.578;2023-03-12T01:44:52;96672.59;;;3.42;100.00
35489;BME280;21602;55.670;37.578;2023-03-12T01:47:19;96669.72;;;3.44;100.00
35489;BME280;21602;55.670;37.578;2023-03-12T01:49:47;96671.03;;;3.46;100.00
35489;BME280;21602;55.670;37.578;2023-03-12T01:52:18;96666.06;;;3.50;100.00
35489;BME280;21602;55.670;37.578;2023-03-12T01:55:02;96664.78;;;3.57;100.00
35489;BME280;21602;55.670;37.578;2023-03-12T01:57:37;96658.47;;;3.58;100.00
35489;BME280;21602;55.670;37.578;2023-03-12T02:00:42;96655.56;;;3.60;100.00
35489;BME280;21602;55.670;37.578;2023-03-12T02:03:06;96646.38;;;3.68;100.00
35489;BME280;21602;55.670;37.578;2023-03-12T02:05:59;96637.72;;;3.72;100.00
35489;BME280;21602;55.670;37.578;2023-03-12T02:08:27;96627.16;;;3.72;100.00
35489;BME280;21602;55.670;37.578;2023-03-12T02:10:53;96623.25;;;3.80;100.00
35489;BME280;21602;55.670;37.578;2023-03-12T02:13:19;96612.44;;;3.87;100.00
35489;BME280;21602;55.670;37.578;2023-03-12T02:15:46;96620.88;;;3.89;100.00
35489;BME280;21602;55.670;37.578;2023-03-12T02:18:15;96611.69;;;3.91;100.00
35489;BME280;21602;55.670;37.578;2023-03-12T02:20:51;96613.22;;;3.87;100.00
35489;BME280;21602;55.670;37.578;2023-03-12T02:25:51;96614.28;;;3.86;100.00
35489;BME280;21602;55.670;37.578;2023-03-12T02:28:22;96600.03;;;3.87;100.00
35489;BME280;21602;55.670;37.578;2023-03-12T02:30:51;96597.41;;;3.87;100.00
35489;BME280;21602;55.670;37.578;2023-03-12T02:33:20;96590.81;;;3.90;100.00
35489;BME280;21602;55.670;37.578;2023-03-12T02:35:47;96595.34;;;3.94;100.00
35489;BME280;21602;55.670;37.578;2023-03-12T02:38:40;96588.22;;;4.00;100.00
35489;BME280;21602;55.670;37.578;2023-03-12T02:41:28;96582.16;;;4.04;100.00
35489;BME280;21602;55.670;37.578;2023-03-12T02:44:16;96571.63;;;4.04;100.00
35489;BME280;21602;55.670;37.578;2023-03-12T02:46:47;96563.13;;;4.02;100.00
35489;BME280;21602;55.670;37.578;2023-03-12T02:49:14;96564.22;;;4.06;100.00
35489;BME280;21602;55.670;37.578;2023-03-12T02:51:42;96564.75;;;4.08;100.00
35489;BME280;21602;55.670;37.578;2023-03-12T02:54:08;96549.72;;;4.14;100.00
35489;BME280;21602;55.670;37.578;2023-03-12T02:56:34;96556.59;;;4.15;100.00
35489;BME280;21602;55.670;37.578;2023-03-12T02:59:00;96548.16;;;4.18;100.00
35489;BME280;21602;55.670;37.578;2023-03-12T03:01:26;96542.09;;;4.23;100.00
35489;BME280;21602;55.670;37.578;2023-03-12T03:03:52;96533.09;;;4.24;100.00
35489;BME280;21602;55.670;37.578;2023-03-12T03:06:19;96529.13;;;4.21;100.00
35489;BME280;21602;55.670;37.578;2023-03-12T03:08:45;96526.25;;;4.28;100.00
35489;BME280;21602;55.670;37.578;2023-03-12T03:11:12;96533.13;;;4.34;100.00
35489;BME280;21602;55.670;37.578;2023-03-12T03:13:39;96531.25;;;4.29;100.00
35489;BME280;21602;55.670;37.578;2023-03-12T03:16:06;96527.03;;;4.28;100.00
35489;BME280;21602;55.670;37.578;2023-03-12T03:18:32;96510.41;;;4.28;100.00
35489;BME280;21602;55.670;37.578;2023-03-12T03:21:00;96516.22;;;4.30;100.00
35489;BME280;21602;55.670;37.578;2023-03-12T03:23:29;96503.78;;;4.30;100.00
35489;BME280;21602;55.670;37.578;2023-03-12T03:25:55;96517.78;;;4.31;100.00
35489;BME280;21602;55.670;37.578;2023-03-12T03:28:22;96514.09;;;4.27;100.00
35489;BME280;21602;55.670;37.578;2023-03-12T03:30:51;96496.66;;;4.26;100.00
35489;BME280;21602;55.670;37.578;2023-03-12T03:33:17;96498.00;;;4.33;100.00
35489;BME280;21602;55.670;37.578;2023-03-12T03:35:43;96484.00;;;4.38;100.00
35489;BME280;21602;55.670;37.578;2023-03-12T03:38:09;96493.50;;;4.39;100.00
35489;BME280;21602;55.670;37.578;2023-03-12T03:40:35;96478.44;;;4.40;100.00
35489;BME280;21602;55.670;37.578;2023-03-12T03:43:01;96472.91;;;4.41;100.00
35489;BME280;21602;55.670;37.578;2023-03-12T03:45:27;96475.53;;;4.46;100.00
35489;BME280;21602;55.670;37.578;2023-03-12T03:47:53;96461.28;;;4.47;100.00
35489;BME280;21602;55.670;37.578;2023-03-12T03:50:19;96459.44;;;4.48;100.00
35489;BME280;21602;55.670;37.578;2023-03-12T03:52:45;96458.09;;;4.50;100.00
35489;BME280;21602;55.670;37.578;2023-03-12T03:55:12;96452.31;;;4.48;100.00
35489;BME280;21602;55.670;37.578;2023-03-12T03:57:39;96445.44;;;4.47;100.00
35489;BME280;21602;55.670;37.578;2023-03-12T04:00:06;96447.03;;;4.48;100.00
35489;BME280;21602;55.670;37.578;2023-03-12T04:02:39;96437.53;;;4.47;100.00
35489;BME280;21602;55.670;37.578;2023-03-12T04:05:07;96424.31;;;4.52;100.00
35489;BME280;21602;55.670;37.578;2023-03-12T04:07:33;96421.38;;;4.54;100.00
35489;BME280;21602;55.670;37.578;2023-03-12T04:09:59;96424.56;;;4.56;100.00
35489;BME280;21602;55.670;37.578;2023-03-12T04:12:25;96426.94;;;4.57;100.00
35489;BME280;21602;55.670;37.578;2023-03-12T04:14:53;96413.19;;;4.55;100.00
35489;BME280;21602;55.670;37.578;2023-03-12T04:17:19;96410.81;;;4.54;100.00
35489;BME280;21602;55.670;37.578;2023-03-12T04:19:46;96407.38;;;4.58;100.00
35489;BME280;21602;55.670;37.578;2023-03-12T04:22:13;96401.03;;;4.65;100.00
35489;BME280;21602;55.670;37.578;2023-03-12T04:24:39;96398.38;;;4.65;100.00
35489;BME280;21602;55.670;37.578;2023-03-12T04:27:05;96393.63;;;4.67;100.00
35489;BME280;21602;55.670;37.578;2023-03-12T04:29:32;96394.16;;;4.69;100.00
35489;BME280;21602;55.670;37.578;2023-03-12T04:31:58;96386.47;;;4.72;100.00
35489;BME280;21602;55.670;37.578;2023-03-12T04:34:24;96390.97;;;4.77;100.00
35489;BME280;21602;55.670;37.578;2023-03-12T04:37:01;96391.47;;;4.79;100.00
35489;BME280;21602;55.670;37.578;2023-03-12T04:39:28;96387.53;;;4.76;100.00
35489;BME280;21602;55.670;37.578;2023-03-12T04:41:54;96391.75;;;4.77;100.00
35489;BME280;21602;55.670;37.578;2023-03-12T04:44:20;96387.78;;;4.80;100.00
35489;BME280;21602;55.670;37.578;2023-03-12T04:46:46;96380.38;;;4.82;100.00
35489;BME280;21602;55.670;37.578;2023-03-12T04:49:16;96380.63;;;4.85;100.00
35489;BME280;21602;55.670;37.578;2023-03-12T04:51:42;96373.47;;;4.91;100.00
35489;BME280;21602;55.670;37.578;2023-03-12T04:54:08;96379.28;;;4.88;100.00
35489;BME280;21602;55.670;37.578;2023-03-12T04:56:35;96370.56;;;4.87;100.00
35489;BME280;21602;55.670;37.578;2023-03-12T04:59:01;96362.91;;;4.91;100.00
35489;BME280;21602;55.670;37.578;2023-03-12T05:01:30;96358.41;;;4.92;100.00
35489;BME280;21602;55.670;37.578;2023-03-12T05:03:57;96354.44;;;4.94;100.00
35489;BME280;21602;55.670;37.578;2023-03-12T05:06:24;96344.34;;;5.01;100.00
35489;BME280;21602;55.670;37.578;2023-03-12T05:08:51;96347.25;;;5.05;100.00
35489;BME280;21602;55.670;37.578;2023-03-12T05:11:18;96348.03;;;5.05;100.00
35489;BME280;21602;55.670;37.578;2023-03-12T05:13:44;96336.69;;;5.05;100.00
35489;BME280;21602;55.670;37.578;2023-03-12T05:16:11;96339.03;;;5.11;100.00
35489;BME280;21602;55.670;37.578;2023-03-12T05:18:37;96323.13;;;5.17;100.00
35489;BME280;21602;55.670;37.578;2023-03-12T05:21:06;96321.00;;;5.24;100.00
35489;BME280;21602;55.670;37.578;2023-03-12T05:23:33;96319.34;;;5.33;100.00
35489;BME280;21602;55.670;37.578;2023-03-12T05:25:59;96322.25;;;5.36;100.00
35489;BME280;21602;55.670;37.578;2023-03-12T05:28:27;96327.75;;;5.40;100.00
35489;BME280;21602;55.670;37.578;2023-03-12T05:30:57;96316.94;;;5.42;100.00
35489;BME280;21602;55.670;37.578;2023-03-12T05:33:25;96307.63;;;5.44;100.00
35489;BME280;21602;55.670;37.578;2023-03-12T05:35:51;96312.41;;;5.42;100.00
35489;BME280;21602;55.670;37.578;2023-03-12T05:38:17;96317.94;;;5.46;100.00
35489;BME280;21602;55.670;37.578;2023-03-12T05:40:53;96303.91;;;5.45;100.00
35489;BME280;21602;55.670;37.578;2023-03-12T05:43:20;96303.91;;;5.45;100.00
35489;BME280;21602;55.670;37.578;2023-03-12T05:45:46;96307.34;;;5.46;100.00
35489;BME280;21602;55.670;37.578;2023-03-12T05:48:12;96304.94;;;5.49;100.00
35489;BME280;21602;55.670;37.578;2023-03-12T05:50:38;96295.13;;;5.55;100.00
35489;BME280;21602;55.670;37.578;2023-03-12T05:53:05;96288.53;;;5.52;100.00
35489;BME280;21602;55.670;37.578;2023-03-12T05:55:35;96284.78;;;5.58;100.00
35489;BME280;21602;55.670;37.578;2023-03-12T05:58:03;96282.13;;;5.58;100.00
35489;BME280;21602;55.670;37.578;2023-03-12T06:00:30;96285.06;;;5.57;100.00
35489;BME280;21602;55.670;37.578;2023-03-12T06:02:57;96281.34;;;5.58;100.00
35489;BME280;21602;55.670;37.578;2023-03-12T06:05:23;96274.97;;;5.59;100.00
35489;BME280;21602;55.670;37.578;2023-03-12T06:07:49;96278.41;;;5.59;100.00
35489;BME280;21602;55.670;37.578;2023-03-12T06:10:16;96279.53;;;5.53;100.00
35489;BME280;21602;55.670;37.578;2023-03-12T06:12:43;96273.75;;;5.51;100.00
35489;BME280;21602;55.670;37.578;2023-03-12T06:15:18;96268.94;;;5.53;100.00
35489;BME280;21602;55.670;37.578;2023-03-12T06:17:44;96267.63;;;5.56;100.00
35489;BME280;21602;55.670;37.578;2023-03-12T06:20:10;96269.19;;;5.57;100.00
35489;BME280;21602;55.670;37.578;2023-03-12T06:22:36;96269.97;;;5.57;100.00
35489;BME280;21602;55.670;37.578;2023-03-12T06:25:03;96265.47;;;5.58;100.00
35489;BME280;21602;55.670;37.578;2023-03-12T06:27:30;96255.19;;;5.56;100.00
35489;BME280;21602;55.670;37.578;2023-03-12T06:29:56;96258.06;;;5.55;100.00
35489;BME280;21602;55.670;37.578;2023-03-12T06:32:22;96255.13;;;5.61;100.00
35489;BME280;21602;55.670;37.578;2023-03-12T06:34:51;96264.94;;;5.61;100.00
35489;BME280;21602;55.670;37.578;2023-03-12T06:37:16;96262.53;;;5.59;100.00
35489;BME280;21602;55.670;37.578;2023-03-12T06:39:42;96254.38;;;5.56;100.00
35489;BME280;21602;55.670;37.578;2023-03-12T06:42:08;96244.53;;;5.61;100.00
35489;BME280;21602;55.670;37.578;2023-03-12T06:44:40;96242.94;;;5.65;100.00
35489;BME280;21602;55.670;37.578;2023-03-12T06:47:06;96242.94;;;5.65;100.00
35489;BME280;21602;55.670;37.578;2023-03-12T06:49:32;96227.56;;;5.68;100.00
35489;BME280;21602;55.670;37.578;2023-03-12T06:51:58;96230.69;;;5.70;100.00
35489;BME280;21602;55.670;37.578;2023-03-12T06:54:24;96224.34;;;5.71;100.00
35489;BME280;21602;55.670;37.578;2023-03-12T06:56:50;96221.47;;;5.67;100.00
35489;BME280;21602;55.670;37.578;2023-03-12T06:59:16;96230.19;;;5.68;100.00
35489;BME280;21602;55.670;37.578;2023-03-12T07:01:42;96226.44;;;5.74;100.00
35489;BME280;21602;55.670;37.578;2023-03-12T07:04:08;96226.66;;;5.77;100.00
35489;BME280;21602;55.670;37.578;2023-03-12T07:06:40;96223.19;;;5.82;100.00
35489;BME280;21602;55.670;37.578;2023-03-12T07:09:06;96220.50;;;5.87;100.00
35489;BME280;21602;55.670;37.578;2023-03-12T07:11:32;96216.22;;;5.91;100.00
35489;BME280;21602;55.670;37.578;2023-03-12T07:13:58;96210.94;;;5.91;100.00
35489;BME280;21602;55.670;37.578;2023-03-12T07:16:24;96213.06;;;5.89;100.00
35489;BME280;21602;55.670;37.578;2023-03-12T07:18:59;96206.69;;;5.95;100.00
35489;BME280;21602;55.670;37.578;2023-03-12T07:21:25;96196.53;;;6.02;100.00
35489;BME280;21602;55.670;37.578;2023-03-12T07:23:54;96190.13;;;6.08;100.00
35489;BME280;21602;55.670;37.578;2023-03-12T07:26:20;96189.91;;;6.05;100.00
35489;BME280;21602;55.670;37.578;2023-03-12T07:28:46;96190.63;;;6.10;100.00
35489;BME280;21602;55.670;37.578;2023-03-12T07:31:12;96188.22;;;6.14;100.00
35489;BME280;21602;55.670;37.578;2023-03-12T07:33:38;96184.06;;;6.08;100.00
35489;BME280;21602;55.670;37.578;2023-03-12T07:36:04;96186.97;;;6.06;100.00
35489;BME280;21602;55.670;37.578;2023-03-12T07:38:30;96181.91;;;6.10;100.00
35489;BME280;21602;55.670;37.578;2023-03-12T07:40:57;96183.69;;;6.14;100.00
35489;BME280;21602;55.670;37.578;2023-03-12T07:43:23;96176.25;;;6.16;100.00
35489;BME280;21602;55.670;37.578;2023-03-12T07:45:52;96183.34;;;6.21;100.00
35489;BME280;21602;55.670;37.578;2023-03-12T07:48:18;96158.66;;;6.26;100.00
35489;BME280;21602;55.670;37.578;2023-03-12T07:50:47;96171.34;;;6.29;100.00
35489;BME280;21602;55.670;37.578;2023-03-12T07:53:13;96166.34;;;6.27;100.00
35489;BME280;21602;55.670;37.578;2023-03-12T07:55:39;96161.00;;;6.32;100.00
35489;BME280;21602;55.670;37.578;2023-03-12T07:58:11;96162.25;;;6.35;100.00
35489;BME280;21602;55.670;37.578;2023-03-12T08:00:41;96148.94;;;6.40;100.00
35489;BME280;21602;55.670;37.578;2023-03-12T08:03:07;96146.81;;;6.42;100.00
35489;BME280;21602;55.670;37.578;2023-03-12T08:05:34;96152.63;;;6.44;100.00
35489;BME280;21602;55.670;37.578;2023-03-12T08:08:00;96143.59;;;6.45;100.00
35489;BME280;21602;55.670;37.578;2023-03-12T08:10:26;96144.38;;;6.46;100.00
35489;BME280;21602;55.670;37.578;2023-03-12T08:12:52;96142.25;;;6.48;100.00
35489;BME280;21602;55.670;37.578;2023-03-12T08:15:18;96133.44;;;6.52;100.00
35489;BME280;21602;55.670;37.578;2023-03-12T08:17:45;96133.13;;;6.54;100.00
35489;BME280;21602;55.670;37.578;2023-03-12T08:20:11;96129.22;;;6.51;100.00
35489;BME280;21602;55.670;37.578;2023-03-12T08:22:39;96127.69;;;6.45;100.00
35489;BME280;21602;55.670;37.578;2023-03-12T08:25:05;96124.53;;;6.43;100.00
35489;BME280;21602;55.670;37.578;2023-03-12T08:27:32;96112.66;;;6.40;100.00
35489;BME280;21602;55.670;37.578;2023-03-12T08:29:59;96111.06;;;6.39;100.00
35489;BME280;21602;55.670;37.578;2023-03-12T08:32:25;96106.00;;;6.43;100.00
35489;BME280;21602;55.670;37.578;2023-03-12T08:34:51;96095.41;;;6.43;100.00
35489;BME280;21602;55.670;37.578;2023-03-12T08:37:18;96088.72;;;6.46;100.00
35489;BME280;21602;55.670;37.578;2023-03-12T08:39:44;96085.22;;;6.50;100.00
35489;BME280;21602;55.670;37.578;2023-03-12T08:42:10;96071.69;;;6.52;100.00
35489;BME280;21602;55.670;37.578;2023-03-12T08:44:36;96072.50;;;6.52;100.00
35489;BME280;21602;55.670;37.578;2023-03-12T08:47:02;96060.09;;;6.48;100.00
35489;BME280;21602;55.670;37.578;2023-03-12T08:49:31;96065.81;;;6.55;100.00
35489;BME280;21602;55.670;37.578;2023-03-12T08:51:57;96069.47;;;6.59;100.00
35489;BME280;21602;55.670;37.578;2023-03-12T08:54:23;96057.44;;;6.66;100.00
35489;BME280;21602;55.670;37.578;2023-03-12T08:56:50;96057.34;;;6.72;100.00
35489;BME280;21602;55.670;37.578;2023-03-12T08:59:17;96058.44;;;6.71;100.00
35489;BME280;21602;55.670;37.578;2023-03-12T09:01:48;96050.97;;;6.73;100.00
35489;BME280;21602;55.670;37.578;2023-03-12T09:04:14;96045.66;;;6.73;100.00
35489;BME280;21602;55.670;37.578;2023-03-12T09:06:41;96035.56;;;6.75;100.00
35489;BME280;21602;55.670;37.578;2023-03-12T09:09:08;96033.63;;;6.80;100.00
35489;BME280;21602;55.670;37.578;2023-03-12T09:11:35;96046.09;;;6.80;100.00
35489;BME280;21602;55.670;37.578;2023-03-12T09:14:07;96033.25;;;6.87;100.00
35489;BME280;21602;55.670;37.578;2023-03-12T09:16:34;96032.38;;;6.91;100.00
35489;BME280;21602;55.670;37.578;2023-03-12T09:19:00;96033.16;;;6.92;100.00
35489;BME280;21602;55.670;37.578;2023-03-12T09:21:26;96028.06;;;6.96;100.00
35489;BME280;21602;55.670;37.578;2023-03-12T09:23:52;96026.50;;;6.95;100.00
35489;BME280;21602;55.670;37.578;2023-03-12T09:26:18;96022.38;;;7.02;100.00
35489;BME280;21602;55.670;37.578;2023-03-12T09:28:44;96018.66;;;7.03;100.00
35489;BME280;21602;55.670;37.578;2023-03-12T09:31:10;96016.97;;;7.07;100.00
35489;BME280;21602;55.670;37.578;2023-03-12T09:33:37;96001.56;;;7.09;100.00
35489;BME280;21602;55.670;37.578;2023-03-12T09:36:03;95999.41;;;7.11;100.00
35489;BME280;21602;55.670;37.578;2023-03-12T09:38:32;95997.84;;;7.10;100.00
35489;BME280;21602;55.670;37.578;2023-03-12T09:41:00;95988.00;;;7.11;100.00
35489;BME280;21602;55.670;37.578;2023-03-12T09:43:36;95975.53;;;7.11;100.00
35489;BME280;21602;55.670;37.578;2023-03-12T09:46:12;95984.66;;;7.05;100.00
35489;BME280;21602;55.670;37.578;2023-03-12T09:48:47;95978.25;;;6.92;100.00
35489;BME280;21602;55.670;37.578;2023-03-12T09:51:53;95976.78;;;6.86;100.00
35489;BME280;21602;55.670;37.578;2023-03-12T09:54:27;95961.16;;;6.85;100.00
35489;BME280;21602;55.670;37.578;2023-03-12T09:57:00;95958.44;;;6.90;100.00
35489;BME280;21602;55.670;37.578;2023-03-12T09:59:27;95944.50;;;6.98;100.00
35489;BME280;21602;55.670;37.578;2023-03-12T10:01:57;95948.13;;;7.02;100.00
35489;BME280;21602;55.670;37.578;2023-03-12T10:04:48;95933.19;;;7.06;100.00
35489;BME280;21602;55.670;37.578;2023-03-12T10:07:27;95929.28;;;7.04;100.00
35489;BME280;21602;55.670;37.578;2023-03-12T10:26:19;95903.25;;;7.06;100.00
35489;BME280;21602;55.670;37.578;2023-03-12T10:28:52;95899.22;;;7.08;100.00
35489;BME280;21602;55.670;37.578;2023-03-12T10:31:25;95898.91;;;7.10;100.00
35489;BME280;21602;55.670;37.578;2023-03-12T10:33:58;95897.56;;;7.12;100.00
35489;BME280;21602;55.670;37.578;2023-03-12T10:36:39;95894.69;;;7.23;100.00
35489;BME280;21602;55.670;37.578;2023-03-12T10:39:13;95890.06;;;7.28;100.00
35489;BME280;21602;55.670;37.578;2023-03-12T10:41:42;95888.19;;;7.29;100.00
35489;BME280;21602;55.670;37.578;2023-03-12T10:44:15;95880.72;;;7.31;100.00
35489;BME280;21602;55.670;37.578;2023-03-12T10:49:36;95871.72;;;7.18;100.00
35489;BME280;21602;55.670;37.578;2023-03-12T10:52:17;95876.91;;;7.09;100.00
35489;BME280;21602;55.670;37.578;2023-03-12T10:54:45;95868.56;;;7.02;100.00
35489;BME280;21602;55.670;37.578;2023-03-12T10:57:12;95863.88;;;6.99;100.00
35489;BME280;21602;55.670;37.578;2023-03-12T10:59:42;95865.22;;;6.97;100.00
35489;BME280;21602;55.670;37.578;2023-03-12T11:02:41;95868.56;;;7.02;100.00
35489;BME280;21602;55.670;37.578;2023-03-12T11:05:24;95854.34;;;6.98;100.00
35489;BME280;21602;55.670;37.578;2023-03-12T11:07:51;95857.56;;;6.95;100.00
35489;BME280;21602;55.670;37.578;2023-03-12T11:12:58;95843.63;;;7.03;100.00
35489;BME280;21602;55.670;37.578;2023-03-12T11:15:41;95851.47;;;7.08;100.00
35489;BME280;21602;55.670;37.578;2023-03-12T11:18:27;95845.75;;;7.15;100.00
35489;BME280;21602;55.670;37.578;2023-03-12T11:29:31;95834.91;;;7.39;100.00
35489;BME280;21602;55.670;37.578;2023-03-12T11:34:42;95839.44;;;7.38;100.00
35489;BME280;21602;55.670;37.578;2023-03-12T11:40:34;95849.28;;;7.24;100.00
35489;BME280;21602;55.670;37.578;2023-03-12T11:51:49;95922.88;;;4.83;99.69
35489;BME280;21602;55.670;37.578;2023-03-12T11:57:40;95945.88;;;3.85;100.00
35489;BME280;21602;55.670;37.578;2023-03-12T12:00:17;95941.50;;;3.71;100.00
35489;BME280;21602;55.670;37.578;2023-03-12T12:11:41;95977.59;;;3.11;100.00
35489;BME280;21602;55.670;37.578;2023-03-12T12:25:21;96015.06;;;2.46;100.00
35489;BME280;21602;55.670;37.578;2023-03-12T12:36:24;96047.56;;;1.84;100.00
35489;BME280;21602;55.670;37.578;2023-03-12T12:38:59;96061.53;;;1.85;100.00
35489;BME280;21602;55.670;37.578;2023-03-12T12:41:52;96066.50;;;1.76;100.00
35489;BME280;21602;55.670;37.578;2023-03-12T12:44:24;96061.25;;;1.76;100.00
35489;BME280;21602;55.670;37.578;2023-03-12T12:46:56;96063.34;;;1.79;100.00
35489;BME280;21602;55.670;37.578;2023-03-12T12:52:04;96058.78;;;1.54;100.00
35489;BME280;21602;55.670;37.578;2023-03-12T12:54:46;96068.19;;;1.45;100.00
35489;BME280;21602;55.670;37.578;2023-03-12T12:57:27;96070.00;;;1.34;100.00
35489;BME280;21602;55.670;37.578;2023-03-12T13:00:54;96076.22;;;1.23;100.00
35489;BME280;21602;55.670;37.578;2023-03-12T13:02:57;96096.38;;;1.12;100.00
35489;BME280;21602;55.670;37.578;2023-03-12T13:05:40;96103.44;;;1.07;100.00
35489;BME280;21602;55.670;37.578;2023-03-12T13:08:31;96127.75;;;0.92;100.00
35489;BME280;21602;55.670;37.578;2023-03-12T13:11:21;96146.91;;;0.87;100.00
35489;BME280;21602;55.670;37.578;2023-03-12T13:13:53;96139.91;;;0.71;100.00
35489;BME280;21602;55.670;37.578;2023-03-12T13:19:23;96165.97;;;0.50;100.00
35489;BME280;21602;55.670;37.578;2023-03-12T13:21:57;96144.91;;;0.45;100.00
35489;BME280;21602;55.670;37.578;2023-03-12T13:24:39;96163.25;;;0.40;100.00
35489;BME280;21602;55.670;37.578;2023-03-12T13:27:16;96168.50;;;0.40;100.00
35489;BME280;21602;55.670;37.578;2023-03-12T13:29:56;96180.34;;;0.43;100.00
35489;BME280;21602;55.670;37.578;2023-03-12T13:32:37;96171.75;;;0.25;100.00
35489;BME280;21602;55.670;37.578;2023-03-12T13:39:00;96193.88;;;0.13;100.00
35489;BME280;21602;55.670;37.578;2023-03-12T13:41:47;96215.06;;;0.06;100.00
35489;BME280;21602;55.670;37.578;2023-03-12T13:47:21;96218.28;;;-0.09;100.00
35489;BME280;21602;55.670;37.578;2023-03-12T13:50:03;96229.66;;;-0.20;100.00
35489;BME280;21602;55.670;37.578;2023-03-12T13:52:36;96241.56;;;-0.29;100.00
35489;BME280;21602;55.670;37.578;2023-03-12T13:57:47;96241.09;;;-0.43;100.00
35489;BME280;21602;55.670;37.578;2023-03-12T14:00:23;96253.34;;;-0.48;100.00
35489;BME280;21602;55.670;37.578;2023-03-12T14:03:12;96249.13;;;-0.49;100.00
35489;BME280;21602;55.670;37.578;2023-03-12T14:19:01;96292.78;;;-0.89;97.72
35489;BME280;21602;55.670;37.578;2023-03-12T14:21:34;96298.22;;;-0.90;97.89
35489;BME280;21602;55.670;37.578;2023-03-12T14:24:01;96316.00;;;-0.92;97.98
35489;BME280;21602;55.670;37.578;2023-03-12T14:26:35;96307.19;;;-1.03;96.84
35489;BME280;21602;55.670;37.578;2023-03-12T14:31:34;96343.31;;;-1.17;96.02
35489;BME280;21602;55.670;37.578;2023-03-12T14:34:17;96330.56;;;-1.25;95.97
35489;BME280;21602;55.670;37.578;2023-03-12T14:36:57;96326.91;;;-1.24;96.50
35489;BME280;21602;55.670;37.578;2023-03-12T14:39:35;96354.72;;;-1.23;95.96
35489;BME280;21602;55.670;37.578;2023-03-12T14:42:04;96350.72;;;-1.25;96.21
35489;BME280;21602;55.670;37.578;2023-03-12T14:44:33;96339.69;;;-1.27;95.83
35489;BME280;21602;55.670;37.578;2023-03-12T14:47:16;96375.75;;;-1.30;95.57
35489;BME280;21602;55.670;37.578;2023-03-12T14:49:44;96365.78;;;-1.33;95.27
35489;BME280;21602;55.670;37.578;2023-03-12T14:52:22;96412.44;;;-1.41;94.52